Tiempo atmosférico en la estación meteorológica de Coria, Cáceres (313 m.)



Fecha
DESCASC
Temp. máxima en grados centígrados (hora)
DESCASC
Temp. mínima en grados centígrados (hora)
DESCASC
Temp. media en grados centígrados
DESCASC
Racha de viento máxima en m/sg (hora)
DESCASC
Velocidad máxima media en intervalos de 10 minutos(hora)
DESCASC
Precipitaciones diarias en mm
DESCASC
Precipitaciones de 00:00 a 06:00 en mm
DESCASC
Precipitaciones de 06:00 a 12:00 en mm
DESCASC
Precipitaciones de 12:00 a 18:00 en mm
DESCASC
Precipitaciones de 18:00 a 24:00 en mm
DESCASC
23-06-2019 32.8 (15:30) 16.7 (07:20) 24.8 10 (15:40) 5.28 (20:30) 0 0 0 0 0
22-06-2019 34.1 (17:50) 16.5 (07:30) 25.3 9.72 (15:20) 5.83 (19:50) 0 0 0 0 0
21-06-2019 31.2 (18:40) 15.7 (05:40) 23.5 10 (17:50) 5.83 (01:40) 0 0 0 0 0
20-06-2019 29.5 (18:30) 16.3 (00:00) 22.9 10.56 (20:20) 6.39 (21:00) 0 0 0 0 0
19-06-2019 27.2 (19:40) 16.2 (00:00) 21.7 8.33 (15:10) 4.17 (16:50) 0 0 0 0 0
18-06-2019 27.5 (17:30) 13.6 (00:00) 20.6 14.17 (16:10) 7.22 (16:00) 0 0 0 0 0
17-06-2019 33.2 (16:10) 14.4 (00:00) 23.8 10 (15:30) 5.56 (15:20) 0 0 0 0 0
16-06-2019 32.6 (19:20) 13.7 (00:00) 23.1 8.61 (21:00) 5.83 (21:00) 0 0 0 0 0
15-06-2019 28 (19:40) 9.8 (00:00) 18.9 9.72 (14:50) 3.61 (12:00) 0 0 0 0 0
14-06-2019 25.1 (17:20) 9.1 (00:00) 17.1 13.89 (17:50) 9.17 (17:50) 0 0 0 0 0
13-06-2019 28.3 (19:30) 9.9 (00:00) 19.1 9.17 (18:40) 4.44 (18:40) 0 0 0 0 0
12-06-2019 28.6 (18:50) 11.8 (00:00) 20.2 8.89 (02:40) 5.28 (02:30) 0 0 0 0 0
11-06-2019 26.3 (18:50) 13.4 (00:00) 19.8 15 (09:10) 7.22 (09:20) 0 0 0 0 0
10-06-2019 28.1 (18:50) 12.3 (00:00) 20.2 11.39 (22:00) 6.39 (22:00) 0 0 0 0 0
09-06-2019 27.9 (17:20) 10.6 (00:00) 19.3 12.78 (18:10) 6.94 (18:50) 0 0 0 0 0
08-06-2019 29.3 (18:50) 11.8 (00:00) 20.5 10 (22:50) 5 (22:50) 0 0 0 0 0
07-06-2019 23.1 (18:00) 8.7 (00:00) 15.9 10 (15:40) 5.83 (01:00) 0 0 0 0 0
06-06-2019 24.6 (16:20) 8.4 (00:00) 16.5 16.11 (19:10) 9.72 (22:50) 0 0 0 0 0
05-06-2019 23.6 (17:10) 11.4 (00:00) 17.5 12.22 (19:40) 6.67 (01:10) 0 0 0 0 0
04-06-2019 27 (16:00) 14.7 (00:00) 20.8 14.17 (17:40) 9.44 (17:30) 0 0 0 0 0
03-06-2019 34.7 (16:20) 17.9 (00:00) 26.3 11.67 (20:30) 7.78 (20:30) 0 0 0 0 0
02-06-2019 37.3 (16:50) 19.5 (00:00) 28.4 12.22 (17:20) 6.11 (19:50) 0 0 0 0 0
01-06-2019 36.5 (17:30) 17.4 (00:00) 26.9 10 (23:20) 5.83 (10:10) 0 0 0 0 0
31-05-2019 36 (18:00) 16.9 (00:00) 26.4 9.72 (11:00) 5.56 (11:00) 0 0 0 0 0
30-05-2019 33.1 (19:00) 18.8 (00:00) 25.9 10.28 (09:40) 6.39 (09:30) 0 0 0 0 0
29-05-2019 31.5 (18:30) 16.3 (00:00) 23.9 11.94 (20:40) 5.83 (12:10) 0 0 0 0 0
28-05-2019 31.4 (17:30) 16.6 (00:00) 24 12.5 (11:00) 5.83 (18:40) 0 0 0 0 0
27-05-2019 32.2 (16:50) 16.4 (00:00) 24.3 13.06 (15:20) 6.11 (18:20) 0 0 0 0 0
26-05-2019 32.1 (16:40) 16.9 (00:00) 24.5 13.33 (17:30) 5.56 (06:30) 0 0 0 0 0
25-05-2019 29.3 (18:10) 14.8 (00:00) 22 13.33 (12:10) 6.11 (07:00) 0 0 0 0 0

Gráficas

Temp. máximas Temp. mínimas Temp. medias Precipitaciones Rachas de viento máximas Velocidades máximas media en intervalos de 10 minutos

Datos horarios

Fecha y hora oficial Temperatura (ºC) Velocidad del viento (km/h) Dirección del viento Racha (km/h) Dirección de racha Precipitación (mm) Presión (hPa) Tendencia (hPa) Humedad (%)
2019-06-23 23:00:00 24.7 11 Oeste 23 Oeste 0 975.8 1.1 52
2019-06-23 22:00:00 25.9 11 Oeste 24 Oeste 0 975.4 0.6 49
2019-06-23 21:00:00 26.9 16 Oeste 30 Oeste 0 975.3 0.4 42
2019-06-23 20:00:00 28.7 7 Sudoeste 19 Oeste 0 974.7 -0.5 32
2019-06-23 19:00:00 28.8 12 Oeste 26 Oeste 0 974.8 -0.7 31
2019-06-23 18:00:00 29.6 16 Oeste 27 Oeste 0 974.9 -1.1 30
2019-06-23 17:00:00 31.4 12 Sudoeste 26 Sur 0 975.2 -1.5 16
2019-06-23 16:00:00 31.8 12 Sudoeste 36 Oeste 0 975.5 -1.7 16
2019-06-23 15:00:00 31.2 7 Sudoeste 30 Sudeste 0 976 -1.5 15
2019-06-23 14:00:00 29.9 13 Sudeste 29 Sudeste 0 976.7 -0.8 21
2019-06-23 13:00:00 27.2 7 Sudeste 18 Oeste 0 977.2 -0.4 31
2019-06-23 12:00:00 24.5 8 Oeste 17 Sudoeste 0 977.5 0.2 41
2019-06-23 11:00:00 23.4 5 Sudoeste 14 Sudoeste 0 977.5 0.9 43
2019-06-23 10:00:00 20.7 4 Sudoeste 12 Oeste 0 977.6 1.3 42
2019-06-23 09:00:00 19 4 Sudoeste 10 Sudoeste 0 977.3 1.3 45
2019-06-23 08:00:00 16.7 4 Sudeste 6 Sudeste 0 976.6 0.4 48
2019-06-23 07:00:00 17.1 4 Este 12 Este 0 976.3 0 46
2019-06-23 06:00:00 17.5 8 Este 12 Este 0 976 0 47
2019-06-23 05:00:00 18.4 0 Calma 14 Oeste 0 976.2 0.2 42
2019-06-23 04:00:00 19.2 6 Oeste 17 Oeste 0 976.3 0.4 42
2019-06-23 03:00:00 20.5 10 Oeste 17 Oeste 0 976 0.1 36
2019-06-23 02:00:00 20.9 5 Oeste 9 Oeste 0 976 0.2 26
2019-06-23 01:00:00 22.2 4 Oeste 14 Oeste 0 975.9 0.6 23
2019-06-23 00:00:00 24.2 7 Oeste 20 Oeste 0 975.9 0.9 19
2019-06-22 23:00:00 24.6 8 Oeste 19 Oeste 0 975.8 0.9 18
2019-06-22 22:00:00 27 6 Oeste 26 Oeste 0 975.3 0.5 14
2019-06-22 21:00:00 30.3 14 Oeste 32 Sudoeste 0 975 -0.4 13
2019-06-22 20:00:00 31.9 21 Oeste 31 Oeste 0 974.9 -0.9 13
2019-06-22 19:00:00 33.4 12 Sudoeste 28 Sudoeste 0 974.8 -1.5 13
2019-06-22 18:00:00 33.4 12 Sudoeste 31 Sudoeste 0 975.4 -1.4 12
2019-06-22 17:00:00 33.8 14 Sudoeste 33 Sur 0 975.8 -1.5 12
2019-06-22 16:00:00 33 12 Sudoeste 35 Sur 0 976.3 -1.6 15
2019-06-22 15:00:00 32.8 15 Sur 30 Sudeste 0 976.8 -1 15
2019-06-22 14:00:00 32.3 13 Sudoeste 30 Sudoeste 0 977.3 -0.8 18
2019-06-22 13:00:00 30 12 Sudoeste 24 Este 0 977.9 -0.7 22
2019-06-22 12:00:00 28.5 13 Este 30 Este 0 977.8 -0.6 30
2019-06-22 11:00:00 26.6 18 Este 31 Este 0 978.1 0.1 34
2019-06-22 10:00:00 24.1 16 Este 32 Este 0 978.6 0.6 40
2019-06-22 09:00:00 21.7 2 Sur 9 Este 0 978.4 0.8 44
2019-06-22 08:00:00 17.8 6 Este 10 Este 0 978 0.3 53
2019-06-22 07:00:00 17.3 3 Oeste 12 Este 0 978 0.2 52
2019-06-22 06:00:00 19 6 Este 10 Este 0 977.6 -0.6 46
2019-06-22 05:00:00 19 4 Sudeste 9 Nordeste 0 977.7 -0.5 49
2019-06-22 04:00:00 19.2 2 Nordeste 13 Norte 0 977.8 -0.3 51
2019-06-22 03:00:00 19.8 7 Noroeste 11 Norte 0 978.2 -0.1 52
2019-06-22 02:00:00 21.7 3 Oeste 24 Norte 0 978.2 0.1 38
2019-06-22 01:00:00 22.7 14 Norte 28 Norte 0 978.1 0.4 34
2019-06-22 00:00:00 24.9 16 Norte 30 Norte 0 978.3 0.8 28
2019-06-21 23:00:00 25.4 9 Norte 19 Norte 0 978.1 0.9 27
2019-06-21 22:00:00 26.9 7 Norte 26 Noroeste 0 977.7 0.6 25
2019-06-21 21:00:00 29.3 14 Noroeste 25 Noroeste 0 977.5 0.1 21
2019-06-21 20:00:00 30.2 15 Oeste 31 Oeste 0 977.2 -0.6 20
2019-06-21 19:00:00 30.8 11 Noroeste 28 Oeste 0 977.1 -1.1 20
2019-06-21 18:00:00 30.7 9 Oeste 36 Noroeste 0 977.4 -1.2 22
2019-06-21 17:00:00 30.5 11 Noroeste 31 Noroeste 0 977.8 -1.2 23
2019-06-21 16:00:00 29 11 Oeste 27 Oeste 0 978.2 -1.1 26
2019-06-21 15:00:00 27.6 3 Nordeste 28 Noroeste 0 978.6 -0.8 29
2019-06-21 14:00:00 27 8 Noroeste 28 Oeste 0 979 -0.6 33
2019-06-21 13:00:00 26.1 10 Oeste 29 Oeste 0 979.3 -0.4 36
2019-06-21 12:00:00 24.7 9 Oeste 24 Noroeste 0 979.4 0.1 40
2019-06-21 11:00:00 23 9 Noroeste 22 Noroeste 0 979.6 0.7 47
2019-06-21 10:00:00 21.3 13 Noroeste 25 Oeste 0 979.7 1.4 53
2019-06-21 09:00:00 19.1 10 Noroeste 21 Noroeste 0 979.3 1.1 62
2019-06-21 08:00:00 16.8 10 Noroeste 27 Noroeste 0 978.9 0.7 71
2019-06-21 07:00:00 16.1 20 Noroeste 30 Noroeste 0 978.3 0.2 73
2019-06-21 06:00:00 16.3 20 Noroeste 29 Noroeste 0 978.2 -0.3 71
2019-06-21 05:00:00 16.2 10 Noroeste 16 Noroeste 0 978.2 -0.1 70
2019-06-21 04:00:00 17 6 Noroeste 10 Noroeste 0 978.1 -0.5 66
2019-06-21 03:00:00 17.8 8 Noroeste 28 Noroeste 0 978.5 0.1 63
2019-06-21 02:00:00 18.5 20 Noroeste 33 Noroeste 0 978.3 0.6 59
2019-06-21 01:00:00 18.8 15 Noroeste 25 Noroeste 0 978.6 1.8 60
2019-06-21 00:00:00 19.8 6 Noroeste 20 Oeste 0 978.4 2.3 57
2019-06-20 23:00:00 20.3 10 Oeste 22 Oeste 0 977.7 2.1 50
2019-06-20 22:00:00 22.3 13 Oeste 33 Oeste 0 976.8 0.9 46
2019-06-20 21:00:00 25.6 23 Oeste 38 Sudoeste 0 976.1 0.1 38
2019-06-20 20:00:00 28.9 13 Sudoeste 26 Sudoeste 0 975.6 -0.9 26
2019-06-20 19:00:00 29.1 13 Sudoeste 28 Oeste 0 975.9 -1.3 25
2019-06-20 18:00:00 29.2 10 Sudoeste 27 Sudoeste 0 976 -1.4 27
2019-06-20 17:00:00 28.7 11 Sudoeste 31 Sudoeste 0 976.5 -1.6 28
2019-06-20 16:00:00 27.9 13 Sudoeste 36 Sudoeste 0 977.2 -1.1 29
2019-06-20 15:00:00 26.9 7 Sur 19 Oeste 0 977.4 -1.1 32
2019-06-20 14:00:00 26.1 12 Sudoeste 23 Sudoeste 0 978.1 0 35
2019-06-20 13:00:00 23.4 8 Oeste 21 Sudoeste 0 978.3 0.1 46
2019-06-20 12:00:00 23.1 8 Sudoeste 17 Sudoeste 0 978.5 0.4 51
2019-06-20 11:00:00 21.2 4 Oeste 13 Oeste 0 978.1 0 57
2019-06-20 10:00:00 19.7 8 Oeste 13 Oeste 0 978.2 0 65
2019-06-20 09:00:00 17.9 5 Noroeste 12 Noroeste 0 978.1 0.1 70
2019-06-20 08:00:00 17.1 7 Noroeste 13 Noroeste 0 978.1 0 72
2019-06-20 07:00:00 16.8 6 Noroeste 12 Norte 0 978.2 0.1 74
2019-06-20 06:00:00 17.7 8 Norte 15 Noroeste 0 978 -0.5 72
2019-06-20 05:00:00 16.9 7 Norte 14 Norte 0 978.1 -0.7 74
2019-06-20 04:00:00 17.4 9 Norte 15 Norte 0 978.1 -0.8 73
2019-06-20 03:00:00 17.4 6 Noroeste 22 Noroeste 0 978.5 -0.2 70
2019-06-20 02:00:00 18.8 15 Noroeste 24 Noroeste 0 978.8 0.4 66
2019-06-20 01:00:00 19.2 8 Noroeste 18 Oeste 0 978.9 1 64
2019-06-20 00:00:00 19.9 10 Oeste 14 Oeste 0 978.7 0.8 59
2019-06-19 23:00:00 21.3 6 Oeste 14 Oeste 0 978.4 0.5 52
2019-06-19 22:00:00 23 8 Oeste 17 Sudoeste 0 977.9 -0.1 46
2019-06-19 21:00:00 25.2 8 Oeste 22 Oeste 0 977.9 -0.5 39
2019-06-19 20:00:00 27 9 Sur 25 Sur 0 977.9 -1 36
2019-06-19 19:00:00 26.4 9 Sudoeste 24 Oeste 0 978 -1.1 37
2019-06-19 18:00:00 25.9 13 Oeste 23 Oeste 0 978.4 -1 37
2019-06-19 17:00:00 25.3 14 Sudoeste 28 Oeste 0 978.9 -1.1 43
2019-06-19 16:00:00 25.9 9 Sudoeste 30 Sudoeste 0 979.1 -1 38
2019-06-19 15:00:00 24.7 11 Sudoeste 24 Sudoeste 0 979.4 -0.6 42
2019-06-19 14:00:00 24 8 Sudoeste 22 Sudoeste 0 980 0.2 46
2019-06-19 13:00:00 23.4 8 Sur 24 Sur 0 980.1 0.3 51
2019-06-19 12:00:00 22.1 10 Sur 19 Sudoeste 0 980 0.6 59
2019-06-19 11:00:00 20.7 10 Sudoeste 19 Sudoeste 0 979.8 0.8 65
2019-06-19 10:00:00 19.7 10 Sudoeste 18 Sudoeste 0 979.8 0.9 69
2019-06-19 09:00:00 18.6 6 Sudoeste 17 Sudoeste 0 979.4 0.5 78
2019-06-19 08:00:00 17.8 7 Sur 15 Sudoeste 0 979 0.2 80
2019-06-19 07:00:00 17.5 5 Sur 10 Sudoeste 0 978.9 0.4 79
2019-06-19 06:00:00 17.6 4 Sudoeste 16 Sudoeste 0 978.9 0.2 80
2019-06-19 05:00:00 17 13 Oeste 19 Sudoeste 0 978.8 0 81
2019-06-19 04:00:00 16.5 3 Oeste 9 Oeste 0 978.5 -0.3 78
2019-06-19 03:00:00 17.4 4 Oeste 8 Oeste 0 978.7 -0.1 75
2019-06-19 02:00:00 17.7 7 Oeste 19 Oeste 0 978.8 0.7 71
2019-06-19 01:00:00 18.8 5 Oeste 17 Oeste 0 978.8 1.4 64
2019-06-19 00:00:00 19.9 10 Oeste 23 Oeste 0 978.8 1.7 60
2019-06-18 23:00:00 21.2 13 Oeste 32 Sudoeste 0 978.1 1.1 46
2019-06-18 22:00:00 23.1 19 Oeste 36 Oeste 0 977.4 0.5 43
2019-06-18 21:00:00 24.7 10 Sudoeste 28 Sudoeste 0 977.1 -0.1 44
2019-06-18 20:00:00 25.9 15 Sudoeste 32 Sudoeste 0 977 -0.4 40
2019-06-18 19:00:00 26.7 22 Sudoeste 45 Sudoeste 0 976.9 -1 38
2019-06-18 18:00:00 27.1 17 Sudoeste 50 Sudoeste 0 977.2 -0.9 37
2019-06-18 17:00:00 26.2 19 Sudoeste 51 Oeste 0 977.4 -1 39
2019-06-18 16:00:00 24.5 26 Sudoeste 45 Sudoeste 0 977.9 -0.4 44
2019-06-18 15:00:00 23.3 17 Oeste 40 Oeste 0 978.1 -0.2 54
2019-06-18 14:00:00 23.6 17 Oeste 37 Oeste 0 978.4 0.1 48
2019-06-18 13:00:00 22.9 8 Sudoeste 29 Sur 0 978.3 -0.1 46
2019-06-18 12:00:00 23.7 9 Sur 21 Sur 0 978.3 0 35
2019-06-18 11:00:00 21.3 9 Sudeste 21 Sudeste 0 978.3 0.2 35
2019-06-18 10:00:00 19 5 Sur 13 Oeste 0 978.4 0.8 47
2019-06-18 09:00:00 17.1 3 Sur 6 Sudoeste 0 978.3 1.2 53
2019-06-18 08:00:00 14.1 2 Sudoeste 8 Sudoeste 0 978.1 1.1 60
2019-06-18 07:00:00 13.9 2 Sur 8 Sudoeste 0 977.6 0.7 57
2019-06-18 06:00:00 14.7 2 Sudoeste 10 Oeste 0 977.1 0.2 49
2019-06-18 05:00:00 15.8 3 Oeste 15 Oeste 0 977 0.3 49
2019-06-18 04:00:00 16.9 10 Oeste 17 Oeste 0 976.9 0 51
2019-06-18 03:00:00 18.4 8 Oeste 15 Oeste 0 976.9 0.4 49
2019-06-18 02:00:00 20.1 8 Oeste 17 Sudoeste 0 976.7 0.5 44
2019-06-18 01:00:00 21.3 8 Oeste 22 Oeste 0 976.9 1.1 39
2019-06-18 00:00:00 23.7 3 Noroeste 9 Oeste 0 976.5 0.3 31
2019-06-17 23:00:00 25 4 Oeste 16 Sudoeste 0 976.2 -0.1 29
2019-06-17 22:00:00 26.4 7 Norte 23 Oeste 0 975.8 -0.5 26
2019-06-17 21:00:00 27.7 9 Oeste 17 Oeste 0 976.2 -0.6 16
2019-06-17 20:00:00 29.1 9 Sudoeste 21 Sudoeste 0 976.3 -0.8 15
2019-06-17 19:00:00 30.3 14 Sudoeste 26 Oeste 0 976.3 -1.3 13
2019-06-17 18:00:00 30.4 15 Sudoeste 30 Oeste 0 976.8 -1.4 13
2019-06-17 17:00:00 31.5 10 Sur 35 Sudoeste 0 977.1 -1.9 12
2019-06-17 16:00:00 32.1 13 Sur 36 Sudeste 0 977.6 -2 13
2019-06-17 15:00:00 30.7 13 Sur 35 Sudoeste 0 978.2 -1.9 15
2019-06-17 14:00:00 30.1 12 Sudeste 35 Sudeste 0 979 -1.5 20
2019-06-17 13:00:00 28.1 15 Sudeste 27 Sudeste 0 979.6 -1.3 25
2019-06-17 12:00:00 25.6 5 Sur 15 Oeste 0 980.1 -0.6 32
2019-06-17 11:00:00 22.7 5 Sudoeste 14 Oeste 0 980.5 0.1 38
2019-06-17 10:00:00 19.8 6 Oeste 13 Oeste 0 980.9 0.9 53
2019-06-17 09:00:00 18.2 0 Calma 10 Este 0 980.7 0.7 58
2019-06-17 08:00:00 15.1 7 Este 9 Este 0 980.4 0.4 68
2019-06-17 07:00:00 14.6 4 Este 6 Este 0 980 0 70
2019-06-17 06:00:00 15.3 0 Calma 7 Sudoeste 0 980 -0.2 65
2019-06-17 05:00:00 16.3 3 Oeste 8 Noroeste 0 980 0 60
2019-06-17 04:00:00 17.8 4 Oeste 13 Sudoeste 0 980 0 55
2019-06-17 03:00:00 18.2 7 Oeste 15 Sudoeste 0 980.2 0.1 55
2019-06-17 02:00:00 19.6 6 Oeste 19 Sudoeste 0 980 0.4 52
2019-06-17 01:00:00 20.7 8 Oeste 15 Noroeste 0 980 1.3 41
2019-06-17 00:00:00 22 5 Oeste 17 Oeste 0 980.1 1.9 31
2019-06-16 23:00:00 23.6 6 Oeste 25 Sudoeste 0 979.6 1.5 30
2019-06-16 22:00:00 25.5 11 Oeste 31 Sudoeste 0 978.7 0.7 28
2019-06-16 21:00:00 29.5 21 Oeste 31 Oeste 0 978.2 -0.2 21
2019-06-16 20:00:00 31.5 8 Sur 25 Sudoeste 0 978.1 -0.8 14
2019-06-16 19:00:00 32.1 9 Sudoeste 30 Oeste 0 978 -1.5 14
2019-06-16 18:00:00 31.2 4 Este 23 Sudeste 0 978.4 -1.7 14
2019-06-16 17:00:00 31.3 4 Norte 19 Este 0 978.9 -1.9 16
2019-06-16 16:00:00 30.3 5 Nordeste 21 Este 0 979.5 -1.9 18
2019-06-16 15:00:00 29.1 5 Norte 20 Este 0 980.1 -1.5 20
2019-06-16 14:00:00 27.5 9 Este 18 Este 0 980.8 -0.9 23
2019-06-16 13:00:00 25.8 12 Este 20 Sudeste 0 981.4 -0.3 25
2019-06-16 12:00:00 24.5 9 Este 20 Este 0 981.6 0.1 27
2019-06-16 11:00:00 22.5 9 Este 17 Este 0 981.7 0.6 34
2019-06-16 10:00:00 20.6 6 Sudeste 11 Este 0 981.7 0.9 41
2019-06-16 09:00:00 17.6 2 Sur 6 Sur 0 981.5 1.1 52
2019-06-16 08:00:00 14.4 0 Calma 5 Norte 0 981.1 0.7 57
2019-06-16 07:00:00 14.2 2 Este 7 Este 0 980.8 0.2 56
2019-06-16 06:00:00 15.3 2 Nordeste 10 Este 0 980.4 -0.6 51
2019-06-16 05:00:00 16.5 4 Nordeste 18 Noroeste 0 980.4 -0.9 48
2019-06-16 04:00:00 17.4 11 Norte 18 Norte 0 980.6 -1 46
2019-06-16 03:00:00 18.2 12 Norte 23 Norte 0 981 -0.6 43
2019-06-16 02:00:00 18.9 9 Norte 21 Norte 0 981.3 0.1 38
2019-06-16 01:00:00 19.8 9 Norte 18 Nordeste 0 981.6 0.9 34
2019-06-16 00:00:00 21 10 Norte 16 Norte 0 981.6 0.8 31
2019-06-15 23:00:00 21.8 2 Oeste 10 Sur 0 981.2 0.7 28
2019-06-15 22:00:00 24.1 4 Sudoeste 9 Sur 0 980.7 -0.2 23
2019-06-15 21:00:00 26.9 8 Sur 17 Oeste 0 980.8 -0.5 19
2019-06-15 20:00:00 27.4 10 Oeste 20 Oeste 0 980.5 -1.4 18
2019-06-15 19:00:00 27.5 8 Sudoeste 19 Oeste 0 980.9 -1.6 18
2019-06-15 18:00:00 27.4 6 Noroeste 22 Noroeste 0 981.3 -1.6 19
2019-06-15 17:00:00 26.5 6 Oeste 22 Sudoeste 0 981.9 -1.4 21
2019-06-15 16:00:00 25.3 6 Norte 24 Oeste 0 982.5 -1.1 24
2019-06-15 15:00:00 23.8 8 Noroeste 35 Oeste 0 982.9 -1 25
2019-06-15 14:00:00 22.6 9 Noroeste 26 Oeste 0 983.3 -0.5 28
2019-06-15 13:00:00 22.2 9 Sudoeste 23 Sudeste 0 983.6 -0.3 31
2019-06-15 12:00:00 20.9 13 Sudeste 22 Sudeste 0 983.9 0.3 39
2019-06-15 11:00:00 18.8 4 Oeste 17 Noroeste 0 983.8 0.6 43
2019-06-15 10:00:00 16.8 7 Norte 17 Noroeste 0 983.9 1.1 50
2019-06-15 09:00:00 14.9 3 Norte 10 Noroeste 0 983.6 1.2 58
2019-06-15 08:00:00 12.1 8 Norte 14 Norte 0 983.2 0.6 68
2019-06-15 07:00:00 10.1 3 Sudoeste 15 Noroeste 0 982.8 0.2 72
2019-06-15 06:00:00 11 10 Norte 18 Norte 0 982.4 0 72
2019-06-15 05:00:00 11 5 Oeste 9 Oeste 0 982.6 0.2 72
2019-06-15 04:00:00 11.8 4 Noroeste 11 Noroeste 0 982.6 0.4 69
2019-06-15 03:00:00 12.5 8 Noroeste 23 Noroeste 0 982.4 0.5 65
2019-06-15 02:00:00 12.6 7 Oeste 20 Oeste 0 982.4 0.9 63
2019-06-15 01:00:00 14.2 8 Oeste 19 Oeste 0 982.2 1.6 56
2019-06-15 00:00:00 15.3 7 Oeste 23 Oeste 0 981.9 2.1 53
2019-06-14 23:00:00 16.1 12 Oeste 31 Oeste 0 981.5 2.6 52
2019-06-14 22:00:00 17.1 16 Oeste 38 Oeste 0 980.6 2.4 48
2019-06-14 21:00:00 19.4 17 Oeste 44 Oeste 0 979.8 1.8 39
2019-06-14 20:00:00 20.8 26 Oeste 49 Oeste 0 978.9 1.2 32
2019-06-14 19:00:00 22.7 23 Oeste 49 Oeste 0 978.2 0.6 27
2019-06-14 18:00:00 22.8 30 Oeste 50 Oeste 0 978 -0.1 29
2019-06-14 17:00:00 24 26 Oeste 44 Oeste 0 977.7 -0.6 24
2019-06-14 16:00:00 24.2 14 Sudoeste 41 Sudoeste 0 977.6 -0.4 23
2019-06-14 15:00:00 22 9 Sudoeste 29 Oeste 0 978.1 0.2 32
2019-06-14 14:00:00 21.7 12 Sudoeste 23 Sudoeste 0 978.3 0.7 35
2019-06-14 13:00:00 20.8 10 Sur 33 Sur 0 978 1 39
2019-06-14 12:00:00 18.5 6 Sudeste 17 Sudoeste 0 977.9 1.2 46
2019-06-14 11:00:00 16.1 9 Sudoeste 17 Sudoeste 0 977.6 1.4 54
2019-06-14 10:00:00 13.9 6 Sur 13 Sudoeste 0 977 1.4 63
2019-06-14 09:00:00 12.4 5 Sudoeste 10 Sur 0 976.7 1.4 68
2019-06-14 08:00:00 9.8 3 Sudoeste 7 Sur 0 976.2 0.8 78
2019-06-14 07:00:00 9.4 0 Calma 9 Sur 0 975.6 0.4 77
2019-06-14 06:00:00 10.1 5 Sudoeste 9 Sudoeste 0 975.3 0.5 75
2019-06-14 05:00:00 10.9 6 Sudoeste 10 Sur 0 975.4 0.5 68
2019-06-14 04:00:00 12.1 7 Oeste 13 Oeste 0 975.2 0.4 62
2019-06-14 03:00:00 13.1 4 Oeste 15 Oeste 0 974.8 0.4 58
2019-06-14 02:00:00 13.8 10 Oeste 17 Oeste 0 974.9 1.3 55
2019-06-14 01:00:00 15.3 9 Oeste 21 Oeste 0 974.8 2.3 51
2019-06-14 00:00:00 18.1 10 Oeste 18 Oeste 0 974.4 2.4 41
2019-06-13 23:00:00 20.2 9 Oeste 26 Noroeste 0 973.6 1.9 35
2019-06-13 22:00:00 22.6 7 Oeste 31 Oeste 0 972.5 0.7 28
2019-06-13 21:00:00 25.6 14 Oeste 26 Oeste 0 972 0 17
2019-06-13 20:00:00 28 9 Sudoeste 31 Oeste 0 971.7 -0.7 15
2019-06-13 19:00:00 27.6 8 Sur 33 Sudoeste 0 971.8 -1.1 17
2019-06-13 18:00:00 27.9 10 Sudoeste 27 Sudoeste 0 972 -1.4 17
2019-06-13 17:00:00 26.9 7 Sudoeste 26 Oeste 0 972.4 -1.5 17
2019-06-13 16:00:00 26.2 9 Sur 24 Oeste 0 972.9 -1.2 19
2019-06-13 15:00:00 24.3 9 Noroeste 20 Sudoeste 0 973.4 -1.1 20
2019-06-13 14:00:00 23.6 10 Sur 26 Sudeste 0 973.9 -0.5 24
2019-06-13 13:00:00 21.7 6 Sudeste 19 Sudeste 0 974.1 -0.1 26
2019-06-13 12:00:00 20.1 8 Sudeste 22 Sudoeste 0 974.5 0.6 35
2019-06-13 11:00:00 19 6 Sur 14 Sur 0 974.4 0.9 43
2019-06-13 10:00:00 17.1 6 Sudeste 12 Sudeste 0 974.2 1.1 49
2019-06-13 09:00:00 15.2 3 Sur 6 Sudeste 0 973.9 0.9 54
2019-06-13 08:00:00 10.8 2 Nordeste 7 Sudoeste 0 973.5 0.5 70
2019-06-13 07:00:00 10.4 3 Noroeste 8 Oeste 0 973.1 0.1 67
2019-06-13 06:00:00 10.6 4 Oeste 6 Oeste 0 973 0 66
2019-06-13 05:00:00 11.8 3 Oeste 14 Oeste 0 973 -0.3 62
2019-06-13 04:00:00 12.9 6 Oeste 19 Noroeste 0 973 -0.5 60
2019-06-13 03:00:00 14.2 3 Oeste 10 Noroeste 0 973 -0.4 54
2019-06-13 02:00:00 15.2 5 Oeste 11 Noroeste 0 973.3 0.2 51
2019-06-13 01:00:00 16.5 8 Noroeste 17 Oeste 0 973.5 1.2 46
2019-06-13 00:00:00 18.5 7 Noroeste 28 Noroeste 0 973.4 1.3 40
2019-06-12 23:00:00 20.5 9 Noroeste 32 Oeste 0 973.1 0.9 33
2019-06-12 22:00:00 23.1 6 Oeste 21 Oeste 0 972.3 -0.1 15
2019-06-12 21:00:00 26.3 8 Oeste 24 Oeste 0 972.1 -0.9 12
2019-06-12 20:00:00 27.4 14 Oeste 32 Oeste 0 972.2 -1.4 12
2019-06-12 19:00:00 27.9 12 Sudoeste 31 Oeste 0 972.4 -1.9 11
2019-06-12 18:00:00 28.2 9 Sudoeste 30 Sudoeste 0 973 -2 13
2019-06-12 17:00:00 27.2 11 Oeste 27 Sudoeste 0 973.6 -2.4 14
2019-06-12 16:00:00 26.5 8 Sudoeste 25 Oeste 0 974.3 -2.3 14
2019-06-12 15:00:00 25.1 9 Sudoeste 26 Oeste 0 975 -2.1 17
2019-06-12 14:00:00 24.1 8 Noroeste 18 Oeste 0 976 -1.4 20
2019-06-12 13:00:00 23.5 5 Sur 24 Este 0 976.6 -0.9 22
2019-06-12 12:00:00 21.8 9 Este 28 Este 0 977.1 -0.3 25
2019-06-12 11:00:00 20 5 Este 20 Este 0 977.4 0.1 29
2019-06-12 10:00:00 17.8 8 Este 17 Sudeste 0 977.5 0.4 34
2019-06-12 09:00:00 15.6 6 Norte 21 Nordeste 0 977.4 0.5 38
2019-06-12 08:00:00 12.6 5 Nordeste 14 Nordeste 0 977.3 0.3 47
2019-06-12 07:00:00 12.5 8 Norte 17 Norte 0 977.1 -0.1 47
2019-06-12 06:00:00 13.3 9 Norte 24 Norte 0 976.9 -0.1 44
2019-06-12 05:00:00 13.9 12 Norte 23 Norte 0 977 -0.5 43
2019-06-12 04:00:00 14.2 2 Nordeste 29 Noroeste 0 977.2 -0.6 43
2019-06-12 03:00:00 15.6 17 Norte 32 Norte 0 977 -0.7 39
2019-06-12 02:00:00 15.4 15 Norte 23 Norte 0 977.5 0.2 39
2019-06-12 01:00:00 17.2 10 Norte 23 Norte 0 977.8 1 31
2019-06-12 00:00:00 18 14 Norte 26 Norte 0 977.7 1.1 24
2019-06-11 23:00:00 20.2 8 Nordeste 18 Nordeste 0 977.3 1 19
2019-06-11 22:00:00 21.7 8 Norte 33 Norte 0 976.8 0.6 17
2019-06-11 21:00:00 24.1 15 Norte 40 Noroeste 0 976.6 0.4 15
2019-06-11 20:00:00 25.4 15 Norte 36 Noroeste 0 976.3 -0.3 13
2019-06-11 19:00:00 25.9 10 Norte 35 Nordeste 0 976.2 -0.6 14
2019-06-11 18:00:00 25.5 8 Nordeste 42 Nordeste 0 976.2 -0.7 15
2019-06-11 17:00:00 25.5 10 Nordeste 39 Norte 0 976.6 -0.4 15
2019-06-11 16:00:00 24.9 12 Norte 41 Noroeste 0 976.8 -0.3 17
2019-06-11 15:00:00 24.2 15 Norte 40 Nordeste 0 976.9 -0.5 20
2019-06-11 14:00:00 23.1 19 Norte 45 Noroeste 0 977 -0.2 24
2019-06-11 13:00:00 22.4 21 Noroeste 48 Noroeste 0 977.1 -0.2 27
2019-06-11 12:00:00 20.1 21 Norte 48 Noroeste 0 977.4 0.3 33
2019-06-11 11:00:00 18.9 19 Norte 36 Norte 0 977.2 0.3 43
2019-06-11 10:00:00 17.3 18 Norte 54 Norte 0 977.3 0.7 50
2019-06-11 09:00:00 15.8 21 Norte 45 Norte 0 977.1 0.4 55
2019-06-11 08:00:00 15 12 Norte 33 Noroeste 0 976.9 0.1 59
2019-06-11 07:00:00 13.5 11 Norte 19 Noroeste 0 976.6 -0.4 64
2019-06-11 06:00:00 14.6 8 Norte 26 Norte 0 976.7 -0.6 59
2019-06-11 05:00:00 15.1 13 Norte 24 Norte 0 976.8 -0.8 56
2019-06-11 04:00:00 15.4 10 Noroeste 20 Norte 0 977 -1 55
2019-06-11 03:00:00 16.1 8 Noroeste 13 Noroeste 0 977.3 -0.7 53
2019-06-11 02:00:00 16.5 9 Noroeste 29 Noroeste 0 977.6 -0.3 50
2019-06-11 01:00:00 17.6 17 Noroeste 43 Noroeste 0 978 0.8 46
2019-06-11 00:00:00 18.6 17 Noroeste 37 Noroeste 0 978 1.2 44
2019-06-10 23:00:00 20.2 18 Noroeste 36 Noroeste 0 977.9 1 40
2019-06-10 22:00:00 22.4 23 Noroeste 41 Noroeste 0 977.2 -0.1 33
2019-06-10 21:00:00 25.5 14 Noroeste 32 Noroeste 0 976.8 -1.1 23
2019-06-10 20:00:00 26.9 13 Noroeste 30 Oeste 0 976.9 -1.4 20
2019-06-10 19:00:00 27.9 13 Noroeste 31 Oeste 0 977.3 -1.7 19
2019-06-10 18:00:00 27.9 10 Noroeste 34 Noroeste 0 977.9 -1.7 16
2019-06-10 17:00:00 27.4 14 Noroeste 36 Noroeste 0 978.3 -2.2 13
2019-06-10 16:00:00 26.4 13 Noroeste 35 Noroeste 0 979 -2 16
2019-06-10 15:00:00 25.9 14 Oeste 31 Oeste 0 979.6 -1.8 21
2019-06-10 14:00:00 24.3 16 Noroeste 36 Noroeste 0 980.5 -0.9 25
2019-06-10 13:00:00 23.3 11 Noroeste 31 Norte 0 981 -0.6 28
2019-06-10 12:00:00 21.8 10 Oeste 26 Noroeste 0 981.4 -0.1 38
2019-06-10 11:00:00 20.2 14 Norte 33 Noroeste 0 981.4 0.3 41
2019-06-10 10:00:00 18.6 15 Noroeste 32 Norte 0 981.6 0.6 46
2019-06-10 09:00:00 16.1 12 Noroeste 27 Noroeste 0 981.5 0.4 56
2019-06-10 08:00:00 13.8 14 Noroeste 22 Noroeste 0 981.1 -0.2 64
2019-06-10 07:00:00 12.9 11 Noroeste 15 Noroeste 0 981 -0.6 66
2019-06-10 06:00:00 13.3 9 Noroeste 13 Noroeste 0 981.1 -1 65
2019-06-10 05:00:00 13.1 4 Noroeste 13 Noroeste 0 981.3 -0.7 64
2019-06-10 04:00:00 14.2 6 Noroeste 10 Noroeste 0 981.6 -0.3 59
2019-06-10 03:00:00 15 3 Norte 16 Noroeste 0 982.1 0.5 56
2019-06-10 02:00:00 16.1 12 Noroeste 27 Noroeste 0 982 0.8 53
2019-06-10 01:00:00 17.4 17 Noroeste 33 Noroeste 0 981.9 1.4 49
2019-06-10 00:00:00 18.3 15 Noroeste 31 Noroeste 0 981.6 1.7 48
2019-06-09 23:00:00 19.5 13 Noroeste 31 Noroeste 0 981.2 1.8 44
2019-06-09 22:00:00 21.3 18 Noroeste 42 Noroeste 0 980.5 1.5 39
2019-06-09 21:00:00 23.5 18 Noroeste 36 Oeste 0 979.9 0.9 31
2019-06-09 20:00:00 25.6 22 Oeste 39 Oeste 0 979.4 0.4 25
2019-06-09 19:00:00 26.9 23 Oeste 46 Sudoeste 0 979 -0.6 22
2019-06-09 18:00:00 26.7 21 Oeste 41 Oeste 0 979 -1.1 21
2019-06-09 17:00:00 26.2 19 Noroeste 35 Noroeste 0 979 -1.8 23
2019-06-09 16:00:00 26.5 9 Sudoeste 31 Noroeste 0 979.6 -1.5 21
2019-06-09 15:00:00 26 12 Noroeste 38 Oeste 0 980.1 -1.3 23
2019-06-09 14:00:00 24.5 10 Oeste 32 Oeste 0 980.8 -0.7 27
2019-06-09 13:00:00 22.7 9 Norte 24 Noroeste 0 981.1 -0.6 31
2019-06-09 12:00:00 21.8 6 Sudoeste 23 Sudeste 0 981.4 0 41
2019-06-09 11:00:00 20.3 9 Este 23 Este 0 981.5 0.5 44
2019-06-09 10:00:00 17.5 10 Noroeste 18 Noroeste 0 981.7 1.1 51
2019-06-09 09:00:00 13.9 7 Oeste 12 Oeste 0 981.4 1.1 59
2019-06-09 08:00:00 11.1 3 Oeste 7 Oeste 0 981 0.6 65
2019-06-09 07:00:00 10.9 3 Oeste 10 Oeste 0 980.6 0 67
2019-06-09 06:00:00 11.2 6 Noroeste 17 Noroeste 0 980.3 -0.5 67
2019-06-09 05:00:00 12 10 Noroeste 18 Noroeste 0 980.4 -0.7 67
2019-06-09 04:00:00 13.6 4 Oeste 14 Oeste 0 980.6 -0.7 64
2019-06-09 03:00:00 14.7 5 Noroeste 15 Noroeste 0 980.8 0 60
2019-06-09 02:00:00 16.6 12 Noroeste 22 Noroeste 0 981.1 0.9 55
2019-06-09 01:00:00 17.2 5 Noroeste 24 Oeste 0 981.3 1.8 52
2019-06-09 00:00:00 18.9 6 Noroeste 27 Oeste 0 980.8 1.7 47
2019-06-08 23:00:00 21.3 12 Oeste 36 Oeste 0 980.2 1.2 39
2019-06-08 22:00:00 23 6 Oeste 17 Oeste 0 979.5 0.5 19
2019-06-08 21:00:00 25.6 12 Oeste 23 Oeste 0 979.1 -0.1 17
2019-06-08 20:00:00 26.4 15 Oeste 25 Oeste 0 979 -0.6 17
2019-06-08 19:00:00 28.2 9 Sudoeste 28 Sudoeste 0 979 -1.2 13
2019-06-08 18:00:00 28.2 9 Oeste 26 Sudoeste 0 979.2 -1.8 14
2019-06-08 17:00:00 28.4 10 Oeste 29 Oeste 0 979.6 -2 12
2019-06-08 16:00:00 26.7 9 Oeste 24 Oeste 0 980.2 -1.9 18
2019-06-08 15:00:00 26.4 4 Noroeste 22 Este 0 981 -1.5 21
2019-06-08 14:00:00 25.8 6 Sudeste 21 Este 0 981.6 -1.3 22
2019-06-08 13:00:00 23.4 9 Este 26 Sudeste 0 982.1 -1.2 25
2019-06-08 12:00:00 22.3 14 Sudeste 26 Este 0 982.5 -1 27
2019-06-08 11:00:00 21 7 Sudeste 15 Sudeste 0 982.9 -0.6 32
2019-06-08 10:00:00 18.7 3 Sudeste 15 Este 0 983.3 0.2 40
2019-06-08 09:00:00 16.6 5 Este 13 Nordeste 0 983.5 0.4 43
2019-06-08 08:00:00 13.3 9 Norte 19 Norte 0 983.5 0.4 53
2019-06-08 07:00:00 12.3 10 Norte 19 Norte 0 983.1 -0.1 57
2019-06-08 06:00:00 11.9 11 Norte 22 Norte 0 983.1 -0.4 60
2019-06-08 05:00:00 12.7 13 Norte 22 Norte 0 983.1 -0.4 58
2019-06-08 04:00:00 13.2 13 Norte 23 Norte 0 983.2 -0.4 56
2019-06-08 03:00:00 13.9 12 Norte 22 Norte 0 983.5 -0.1 52
2019-06-08 02:00:00 14.6 14 Norte 27 Norte 0 983.5 0.3 48
2019-06-08 01:00:00 15.3 14 Norte 23 Norte 0 983.6 0.9 46
2019-06-08 00:00:00 15.9 11 Norte 22 Norte 0 983.6 1.1 44
2019-06-07 23:00:00 17.3 10 Norte 18 Norte 0 983.2 1.1 38
2019-06-07 22:00:00 19 10 Norte 22 Noroeste 0 982.7 0.9 32
2019-06-07 21:00:00 21.7 12 Noroeste 23 Noroeste 0 982.5 0.8 26
2019-06-07 20:00:00 22.8 10 Norte 27 Noroeste 0 982.1 0.3 25
2019-06-07 19:00:00 22.8 10 Noroeste 26 Noroeste 0 981.8 -0.2 25
2019-06-07 18:00:00 23 11 Noroeste 31 Oeste 0 981.7 -0.5 24
2019-06-07 17:00:00 22.3 13 Oeste 30 Oeste 0 981.8 -0.4 26
2019-06-07 16:00:00 21.2 10 Oeste 36 Noroeste 0 982 0 27
2019-06-07 15:00:00 20.2 12 Noroeste 33 Noroeste 0 982.2 0.5 31
2019-06-07 14:00:00 19 10 Noroeste 31 Noroeste 0 982.2 0.8 32
2019-06-07 13:00:00 18.3 11 Norte 28 Noroeste 0 982 1 38
2019-06-07 12:00:00 16.9 7 Noroeste 24 Noroeste 0 981.7 1.4 44
2019-06-07 11:00:00 15.1 8 Noroeste 21 Oeste 0 981.4 1.9 50
2019-06-07 10:00:00 14.1 4 Oeste 12 Oeste 0 981 2.2 59
2019-06-07 09:00:00 11.7 7 Oeste 12 Oeste 0 980.3 2.3 76
2019-06-07 08:00:00 9.6 5 Noroeste 10 Oeste 0 979.5 2.1 91
2019-06-07 07:00:00 8.8 2 Oeste 13 Oeste 0 978.8 1.8 91
2019-06-07 06:00:00 9.4 5 Oeste 12 Oeste 0 978 1.5 90
2019-06-07 05:00:00 9.2 8 Oeste 12 Sudoeste 0 977.4 1.5 91
2019-06-07 04:00:00 9.7 7 Oeste 17 Oeste 0 977 1.9 90
2019-06-07 03:00:00 10.7 8 Noroeste 15 Noroeste 0 976.5 2 85
2019-06-07 02:00:00 11.2 9 Oeste 27 Oeste 0 975.9 2.5 82
2019-06-07 01:00:00 12.5 21 Oeste 30 Oeste 0 975.1 2.6 79
2019-06-07 00:00:00 13.8 18 Oeste 32 Oeste 0 974.5 2.4 76
2019-06-06 23:00:00 14.5 27 Oeste 53 Oeste 0 973.4 1.5 84
2019-06-06 22:00:00 18 19 Sudoeste 55 Sudoeste 0 972.5 0.7 60
2019-06-06 21:00:00 18.3 23 Sudoeste 51 Sudoeste 0 972.1 -0.3 59
2019-06-06 20:00:00 21.3 24 Sudoeste 58 Oeste 0 971.9 -1.2 40
2019-06-06 19:00:00 22.9 21 Sudoeste 50 Sudoeste 0 971.8 -2.1 34
2019-06-06 18:00:00 23.5 20 Sudoeste 46 Sudoeste 0 972.4 -2.5 31
2019-06-06 17:00:00 23.9 19 Sudoeste 40 Sur 0 973.1 -2.5 29
2019-06-06 16:00:00 24.1 16 Sur 40 Sur 0 973.9 -2.4 29
2019-06-06 15:00:00 22.7 15 Sudoeste 36 Sudoeste 0 974.9 -1.9 31
2019-06-06 14:00:00 20.6 13 Sudoeste 32 Oeste 0 975.6 -1.5 34
2019-06-06 13:00:00 20 13 Sudoeste 32 Sudoeste 0 976.3 -1.3 32
2019-06-06 12:00:00 18 10 Sudoeste 23 Sur 0 976.8 -1 37
2019-06-06 11:00:00 16.8 7 Sur 15 Sudoeste 0 977.1 -0.6 44
2019-06-06 10:00:00 14.3 6 Sur 13 Sudoeste 0 977.6 -0.1 54
2019-06-06 09:00:00 11.2 4 Oeste 9 Sudoeste 0 977.8 0 64
2019-06-06 08:00:00 9.3 4 Oeste 8 Oeste 0 977.7 -0.5 71
2019-06-06 07:00:00 8.6 5 Oeste 13 Noroeste 0 977.7 -0.6 70
2019-06-06 06:00:00 9.6 7 Noroeste 11 Noroeste 0 977.8 -0.7 66
2019-06-06 05:00:00 10 5 Noroeste 12 Noroeste 0 978.2 -0.7 65
2019-06-06 04:00:00 10.4 6 Oeste 16 Noroeste 0 978.3 -0.8 63
2019-06-06 03:00:00 11 6 Noroeste 13 Noroeste 0 978.5 -0.6 61
2019-06-06 02:00:00 12 6 Noroeste 16 Oeste 0 978.9 0.3 57
2019-06-06 01:00:00 13.1 8 Oeste 19 Oeste 0 979.1 1.1 52
2019-06-06 00:00:00 14.3 6 Oeste 18 Oeste 0 979.1 1.5 47
2019-06-05 23:00:00 15.7 10 Noroeste 25 Noroeste 0 978.6 1.5 41
2019-06-05 22:00:00 17.3 9 Noroeste 36 Oeste 0 978 0.9 34
2019-06-05 21:00:00 19.3 12 Oeste 40 Oeste 0 977.6 0.4 31
2019-06-05 20:00:00 21.2 15 Oeste 44 Oeste 0 977.1 -0.4 26
2019-06-05 19:00:00 22.7 19 Oeste 40 Oeste 0 977.1 -1 23
2019-06-05 18:00:00 23.1 21 Oeste 39 Oeste 0 977.2 -1.2 25
2019-06-05 17:00:00 23.4 18 Oeste 40 Oeste 0 977.5 -1.6 25
2019-06-05 16:00:00 21.7 17 Oeste 36 Noroeste 0 978.1 -1.2 24
2019-06-05 15:00:00 20.9 15 Oeste 35 Noroeste 0 978.4 -0.8 26
2019-06-05 14:00:00 20.4 15 Noroeste 40 Sudoeste 0 979.1 0 29
2019-06-05 13:00:00 19.1 14 Noroeste 37 Noroeste 0 979.3 0.3 34
2019-06-05 12:00:00 18.9 13 Noroeste 33 Oeste 0 979.2 0.9 34
2019-06-05 11:00:00 16.9 11 Noroeste 27 Noroeste 0 979.1 1.2 40
2019-06-05 10:00:00 15.6 12 Noroeste 31 Oeste 0 979 1.8 48
2019-06-05 09:00:00 14.1 13 Noroeste 29 Noroeste 0 978.3 1.3 53
2019-06-05 08:00:00 12.3 11 Noroeste 29 Noroeste 0 977.9 1.3 61
2019-06-05 07:00:00 12.1 11 Noroeste 31 Noroeste 0 977.2 0.6 60
2019-06-05 06:00:00 11.6 9 Noroeste 26 Noroeste 0 977 0.7 64
2019-06-05 05:00:00 11.8 6 Oeste 21 Noroeste 0 976.6 0.4 64
2019-06-05 04:00:00 12.9 15 Noroeste 32 Noroeste 0 976.6 0.8 62
2019-06-05 03:00:00 13.5 16 Noroeste 31 Norte 0 976.3 0.8 59
2019-06-05 02:00:00 14 8 Noroeste 44 Noroeste 0 976.2 1.2 57
2019-06-05 01:00:00 15.1 21 Noroeste 40 Noroeste 0 975.8 1.4 53
2019-06-05 00:00:00 16.3 19 Noroeste 36 Noroeste 0 975.5 1.5 46
2019-06-04 23:00:00 17 11 Oeste 30 Oeste 0 975 0.9 45
2019-06-04 22:00:00 18.9 21 Oeste 45 Oeste 0 974.4 -0.2 44
2019-06-04 21:00:00 20.8 25 Oeste 44 Oeste 0 974 -0.8 42
2019-06-04 20:00:00 23.2 25 Oeste 39 Oeste 0 974.1 -0.5 37
2019-06-04 19:00:00 22.6 25 Oeste 46 Oeste 0 974.6 -0.2 44
2019-06-04 18:00:00 23.2 30 Oeste 51 Oeste 0 974.8 -0.2 47
2019-06-04 17:00:00 25.3 26 Oeste 46 Sudoeste 0 974.6 -1 37
2019-06-04 16:00:00 26.5 23 Oeste 50 Oeste 0 974.8 -1.6 32
2019-06-04 15:00:00 26.3 17 Oeste 36 Oeste 0 975 -1.7 33
2019-06-04 14:00:00 25.6 13 Sudoeste 28 Oeste 0 975.6 -1.3 36
2019-06-04 13:00:00 24 9 Sudoeste 22 Sudoeste 0 976.4 -0.5 42
2019-06-04 12:00:00 22.2 7 Oeste 19 Oeste 0 976.7 -0.1 49
2019-06-04 11:00:00 20.7 7 Oeste 20 Oeste 0 976.9 0.5 54
2019-06-04 10:00:00 19.1 6 Sudoeste 18 Oeste 0 976.9 0.9 61
2019-06-04 09:00:00 17.3 8 Sudoeste 17 Sudoeste 0 976.8 1.2 69
2019-06-04 08:00:00 15.1 3 Oeste 18 Oeste 0 976.4 0.5 81
2019-06-04 07:00:00 14.8 8 Sudoeste 16 Oeste 0 976 -0.1 83
2019-06-04 06:00:00 15.3 8 Oeste 15 Oeste 0 975.6 -1.1 80
2019-06-04 05:00:00 16.3 8 Oeste 15 Oeste 0 975.9 -1.1 75
2019-06-04 04:00:00 17.3 4 Oeste 17 Oeste 0 976.1 -1.5 72
2019-06-04 03:00:00 18.2 13 Sudoeste 19 Sudoeste 0 976.7 -0.6 68
2019-06-04 02:00:00 19 9 Oeste 18 Oeste 0 977 -0.1 59
2019-06-04 01:00:00 19.8 13 Oeste 22 Oeste 0 977.6 1.2 59
2019-06-04 00:00:00 21.7 9 Oeste 24 Noroeste 0 977.3 0.9 53
2019-06-03 23:00:00 23.9 9 Oeste 27 Oeste 0 977.1 0.8 48
2019-06-03 22:00:00 26 15 Oeste 36 Oeste 0 976.4 0 38
2019-06-03 21:00:00 28.5 27 Oeste 42 Oeste 0 976.4 -0.3 33
2019-06-03 20:00:00 31.4 24 Oeste 40 Oeste 0 976.3 -0.9 27
2019-06-03 19:00:00 32.9 25 Sudoeste 38 Sudoeste 0 976.4 -1.3 21
2019-06-03 18:00:00 34.2 17 Sudoeste 39 Oeste 0 976.7 -1.7 14
2019-06-03 17:00:00 34.2 19 Sudoeste 38 Oeste 0 977.2 -1.9 13
2019-06-03 16:00:00 34 17 Sudoeste 36 Sudoeste 0 977.7 -1.9 11
2019-06-03 15:00:00 32.8 14 Sudoeste 30 Oeste 0 978.4 -1.4 12
2019-06-03 14:00:00 31.5 8 Sudoeste 21 Oeste 0 979.1 -0.8 13
2019-06-03 13:00:00 30.5 5 Sur 19 Sudeste 0 979.6 -0.4 17
2019-06-03 12:00:00 27.7 5 Oeste 15 Sudoeste 0 979.8 0 22
2019-06-03 11:00:00 26.6 4 Sur 15 Este 0 979.9 0.2 27
2019-06-03 10:00:00 23.6 6 Noroeste 18 Noroeste 0 980 0.6 28
2019-06-03 09:00:00 20.9 9 Noroeste 26 Noroeste 0 979.8 0.5 36
2019-06-03 08:00:00 18 6 Noroeste 13 Noroeste 0 979.7 0.5 46
2019-06-03 07:00:00 19.8 9 Noroeste 15 Noroeste 0 979.4 0.1 39
2019-06-03 06:00:00 19.3 8 Noroeste 18 Noroeste 0 979.3 -0.3 40
2019-06-03 05:00:00 20.6 9 Noroeste 18 Noroeste 0 979.2 -0.6 37
2019-06-03 04:00:00 20.8 6 Noroeste 12 Noroeste 0 979.3 -0.6 37
2019-06-03 03:00:00 20.8 4 Noroeste 10 Norte 0 979.6 0 36
2019-06-03 02:00:00 21.3 4 Oeste 14 Noroeste 0 979.8 0.3 35
2019-06-03 01:00:00 22.4 8 Noroeste 12 Noroeste 0 979.9 1 31
2019-06-03 00:00:00 24.1 6 Noroeste 15 Noroeste 0 979.6 1 27
2019-06-02 23:00:00 25.9 5 Oeste 23 Oeste 0 979.5 1.7 21
2019-06-02 22:00:00 28.3 14 Oeste 34 Oeste 0 978.9 1.1 20
2019-06-02 21:00:00 30.7 14 Oeste 37 Oeste 0 978.6 0.6 16
2019-06-02 20:00:00 33.2 21 Oeste 39 Oeste 0 977.8 -0.4 14
2019-06-02 19:00:00 34.7 11 Oeste 34 Oeste 0 977.8 -1 13
2019-06-02 18:00:00 36.4 18 Oeste 44 Sudoeste 0 978 -1.5 11
2019-06-02 17:00:00 36.2 22 Oeste 39 Oeste 0 978.2 -2.2 11
2019-06-02 16:00:00 36.1 8 Sudoeste 28 Oeste 0 978.8 -2.2 12
2019-06-02 15:00:00 34.6 6 Sur 23 Sudoeste 0 979.5 -1.8 14
2019-06-02 14:00:00 34.1 8 Sur 22 Este 0 980.4 -0.9 14
2019-06-02 13:00:00 32.4 10 Este 26 Sudeste 0 981 -0.2 19
2019-06-02 12:00:00 30.2 14 Este 29 Este 0 981.3 0.7 23
2019-06-02 11:00:00 29 12 Este 21 Este 0 981.3 1 24
2019-06-02 10:00:00 26 9 Este 17 Este 0 981.2 1.1 30
2019-06-02 09:00:00 23.9 4 Sudeste 11 Este 0 980.6 1 32
2019-06-02 08:00:00 20 6 Nordeste 15 Noroeste 0 980.3 0.7 40
2019-06-02 07:00:00 20.4 6 Noroeste 19 Norte 0 980.1 0.3 35
2019-06-02 06:00:00 24.3 10 Norte 21 Nordeste 0 979.6 -0.4 24
2019-06-02 05:00:00 24.3 9 Norte 19 Norte 0 979.6 -0.6 24
2019-06-02 04:00:00 24.8 8 Norte 18 Norte 0 979.8 -0.4 25
2019-06-02 03:00:00 23.9 3 Nordeste 10 Nordeste 0 980 0.1 29
2019-06-02 02:00:00 23.9 3 Nordeste 14 Sudoeste 0 980.2 0.8 32
2019-06-02 01:00:00 26.7 7 Norte 28 Norte 0 980.2 1.1 26
2019-06-02 00:00:00 27.8 12 Norte 36 Norte 0 979.9 0.8 24
2019-06-01 23:00:00 29.3 7 Nordeste 10 Nordeste 0 979.4 0.4 18
2019-06-01 22:00:00 30.7 7 Este 10 Este 0 979.1 -0.1 18
2019-06-01 21:00:00 34.6 5 Noroeste 16 Sudeste 0 979.1 -0.6 14
2019-06-01 20:00:00 35.3 8 Sudeste 15 Sur 0 979 -1.1 13
2019-06-01 19:00:00 36 7 Este 19 Nordeste 0 979.2 -1.7 12
2019-06-01 18:00:00 35.6 8 Oeste 32 Noroeste 0 979.7 -1.8 12
2019-06-01 17:00:00 36.1 7 Sudeste 20 Noroeste 0 980.1 -2.2 12
2019-06-01 16:00:00 35.8 8 Sur 18 Sudeste 0 980.9 -2.1 14
2019-06-01 15:00:00 34.2 9 Sudeste 22 Sudeste 0 981.5 -1.7 16
2019-06-01 14:00:00 33.2 9 Este 26 Este 0 982.3 -1 18
2019-06-01 13:00:00 31 10 Este 27 Este 0 983 -0.2 20
2019-06-01 12:00:00 29.4 14 Este 30 Este 0 983.2 0.3 23
2019-06-01 11:00:00 27.2 18 Este 35 Este 0 983.3 0.7 26
2019-06-01 10:00:00 24.9 21 Este 35 Este 0 983.2 1.2 30
2019-06-01 09:00:00 22.2 15 Este 25 Este 0 982.9 1.2 40
2019-06-01 08:00:00 17.9 10 Este 14 Este 0 982.6 1.2 55
2019-06-01 07:00:00 18.5 9 Este 15 Este 0 982 0.6 50
2019-06-01 06:00:00 19.2 5 Este 9 Nordeste 0 981.7 0.4 46
2019-06-01 05:00:00 19.7 6 Nordeste 11 Nordeste 0 981.4 -0.1 47
2019-06-01 04:00:00 21.3 7 Nordeste 22 Sudeste 0 981.4 -0.2 40
2019-06-01 03:00:00 23.4 6 Este 16 Norte 0 981.3 -0.2 32
2019-06-01 02:00:00 23.1 4 Noroeste 10 Oeste 0 981.5 0.4 31
2019-06-01 01:00:00 25.9 8 Nordeste 11 Nordeste 0 981.6 0.7 24
2019-06-01 00:00:00 27.2 5 Este 13 Noroeste 0 981.5 0.7 23
2019-05-31 23:00:00 28 2 Sudoeste 4 Sur 0 981.1 0.3 20
2019-05-31 22:00:00 30.3 3 Sur 8 Sur 0 980.9 -0.4 18
2019-05-31 21:00:00 33.6 5 Sur 11 Sudoeste 0 980.8 -1 15
2019-05-31 20:00:00 34.6 6 Sur 18 Sur 0 980.8 -1.5 13
2019-05-31 19:00:00 35.7 8 Sudoeste 19 Sudoeste 0 981.3 -1.6 12
2019-05-31 18:00:00 36 9 Sudoeste 24 Sudoeste 0 981.8 -1.7 11
2019-05-31 17:00:00 35 9 Sudeste 26 Sudeste 0 982.3 -1.9 12
2019-05-31 16:00:00 34.7 10 Sudeste 23 Este 0 982.9 -1.7 13
2019-05-31 15:00:00 33.8 5 Nordeste 18 Este 0 983.5 -1.4 14
2019-05-31 14:00:00 32.1 8 Este 25 Este 0 984.2 -0.9 18
2019-05-31 13:00:00 30.9 12 Este 30 Este 0 984.6 -0.5 20
2019-05-31 12:00:00 28.8 15 Este 31 Sudeste 0 984.9 0 23
2019-05-31 11:00:00 26.9 20 Este 35 Este 0 985.1 0.3 24
2019-05-31 10:00:00 25.2 14 Este 31 Este 0 985.1 0.9 26
2019-05-31 09:00:00 22.8 14 Este 23 Este 0 984.9 1.1 29
2019-05-31 08:00:00 20.5 6 Este 23 Este 0 984.8 0.8 43
2019-05-31 07:00:00 20.2 14 Este 23 Este 0 984.2 0.6 34
2019-05-31 06:00:00 19.1 12 Este 17 Este 0 983.8 0 42
2019-05-31 05:00:00 17.2 10 Este 19 Sudeste 0 984 0.1 59
2019-05-31 04:00:00 19.5 10 Este 14 Este 0 983.6 -0.4 45
2019-05-31 03:00:00 20.2 2 Norte 11 Este 0 983.8 -0.3 46
2019-05-31 02:00:00 21.7 4 Este 9 Sudeste 0 983.9 0.2 39
2019-05-31 01:00:00 23.6 4 Nordeste 12 Este 0 984 0.9 32
2019-05-31 00:00:00 26.7 8 Nordeste 13 Nordeste 0 984.1 1.4 25
2019-05-30 23:00:00 27.6 8 Nordeste 13 Este 0 983.7 1.1 24
2019-05-30 22:00:00 28.3 8 Nordeste 12 Este 0 983.1 0.1 23
2019-05-30 21:00:00 31.7 6 Este 14 Sudeste 0 982.7 -0.7 19
2019-05-30 20:00:00 32.4 6 Sudeste 21 Sudeste 0 982.6 -1.6 17
2019-05-30 19:00:00 33 9 Sudeste 25 Sudeste 0 983 -1.7 17
2019-05-30 18:00:00 32.8 9 Sudeste 21 Este 0 983.4 -2.1 16
2019-05-30 17:00:00 32 12 Sudeste 24 Sudeste 0 984.2 -1.7 17
2019-05-30 16:00:00 31.1 14 Este 32 Este 0 984.7 -1.8 16
2019-05-30 15:00:00 29.9 14 Este 32 Sudeste 0 985.5 -1.5 20
2019-05-30 14:00:00 28.7 16 Sudeste 35 Este 0 985.9 -1.4 23
2019-05-30 13:00:00 27.3 17 Este 32 Este 0 986.5 -0.7 25
2019-05-30 12:00:00 25.5 19 Este 32 Sudeste 0 987 0.1 27
2019-05-30 11:00:00 24.1 19 Este 33 Este 0 987.3 0.9 29
2019-05-30 10:00:00 22.1 22 Este 37 Este 0 987.2 1.5 33
2019-05-30 09:00:00 20.6 19 Este 31 Este 0 986.9 1.5 37
2019-05-30 08:00:00 19.2 13 Este 33 Este 0 986.4 1.2 39
2019-05-30 07:00:00 19.4 18 Este 33 Este 0 985.7 0.5 36
2019-05-30 06:00:00 20 11 Este 23 Nordeste 0 985.4 0.1 31
2019-05-30 05:00:00 20 11 Este 22 Nordeste 0 985.2 0.1 30
2019-05-30 04:00:00 20.4 12 Nordeste 23 Nordeste 0 985.2 0.4 29
2019-05-30 03:00:00 20.8 10 Este 17 Nordeste 0 985.3 0.8 29
2019-05-30 02:00:00 21.8 12 Este 34 Nordeste 0 985.1 1 29
2019-05-30 01:00:00 23.2 16 Nordeste 35 Norte 0 984.8 1.4 25
2019-05-30 00:00:00 23.9 17 Nordeste 36 Nordeste 0 984.5 1.5 26
2019-05-29 23:00:00 24.8 15 Nordeste 35 Nordeste 0 984.1 1.6 24
2019-05-29 22:00:00 26.2 14 Nordeste 36 Nordeste 0 983.4 0.9 22
2019-05-29 21:00:00 28.3 14 Nordeste 43 Nordeste 0 983 0.4 20
2019-05-29 20:00:00 30.2 13 Nordeste 33 Este 0 982.5 -0.6 18
2019-05-29 19:00:00 30.7 20 Este 36 Este 0 982.5 -1.1 15
2019-05-29 18:00:00 31.2 20 Este 36 Este 0 982.6 -1.5 14
2019-05-29 17:00:00 31.1 10 Este 28 Este 0 983.1 -1.4 17
2019-05-29 16:00:00 29.4 11 Sudeste 25 Este 0 983.6 -1.4 22
2019-05-29 15:00:00 28 11 Sudeste 30 Sudeste 0 984.1 -0.9 24
2019-05-29 14:00:00 26.4 13 Sudeste 32 Este 0 984.5 -0.6 26
2019-05-29 13:00:00 24.5 18 Este 33 Este 0 985 -0.1 28
2019-05-29 12:00:00 23 20 Este 32 Este 0 985 0.2 31
2019-05-29 11:00:00 21.5 20 Este 30 Este 0 985.1 0.8 31
2019-05-29 10:00:00 20.2 18 Este 33 Este 0 985.1 1.6 33
2019-05-29 09:00:00 18.9 14 Este 31 Este 0 984.8 2 34
2019-05-29 08:00:00 16.9 14 Este 25 Este 0 984.3 1.8 37
2019-05-29 07:00:00 17 11 Nordeste 35 Nordeste 0 983.5 1.2 35
2019-05-29 06:00:00 18.3 16 Nordeste 40 Nordeste 0 982.8 0.9 32
2019-05-29 05:00:00 18.6 15 Nordeste 37 Norte 0 982.5 0.9 31
2019-05-29 04:00:00 18.5 13 Nordeste 33 Nordeste 0 982.3 1.2 35
2019-05-29 03:00:00 19.9 14 Nordeste 35 Nordeste 0 981.9 1.1 33
2019-05-29 02:00:00 21.7 9 Este 40 Nordeste 0 981.6 1.5 27
2019-05-29 01:00:00 22.9 13 Nordeste 37 Nordeste 0 981.1 1.5 24
2019-05-29 00:00:00 23.8 13 Nordeste 33 Norte 0 980.8 1.9 22
2019-05-28 23:00:00 24.3 14 Nordeste 34 Nordeste 0 980.1 1.8 22
2019-05-28 22:00:00 25.5 6 Nordeste 21 Norte 0 979.6 1.5 21
2019-05-28 21:00:00 28.8 7 Norte 34 Noroeste 0 978.9 0.8 18
2019-05-28 20:00:00 29.8 15 Norte 41 Noroeste 0 978.3 0 17
2019-05-28 19:00:00 30.4 17 Norte 37 Norte 0 978.1 -0.4 14
2019-05-28 18:00:00 30.9 17 Norte 37 Noroeste 0 978.1 -0.7 14
2019-05-28 17:00:00 31.1 7 Norte 45 Noroeste 0 978.3 -0.7 14
2019-05-28 16:00:00 30.1 11 Norte 33 Noroeste 0 978.5 -0.6 14
2019-05-28 15:00:00 29.9 6 Norte 32 Este 0 978.8 -0.1 17
2019-05-28 14:00:00 28.9 10 Norte 30 Nordeste 0 979 0.2 19
2019-05-28 13:00:00 27.8 8 Nordeste 29 Nordeste 0 979.1 0.6 24
2019-05-28 12:00:00 26.7 14 Nordeste 36 Este 0 978.9 0.6 25
2019-05-28 11:00:00 25.4 16 Nordeste 45 Nordeste 0 978.8 1.1 24
2019-05-28 10:00:00 23.4 15 Nordeste 31 Nordeste 0 978.5 1.4 34
2019-05-28 09:00:00 20.1 7 Norte 22 Norte 0 978.3 1.9 49
2019-05-28 08:00:00 17.3 9 Nordeste 21 Norte 0 977.7 1.3 57
2019-05-28 07:00:00 16.8 3 Oeste 14 Este 0 977.1 0.9 57
2019-05-28 06:00:00 17.9 8 Nordeste 16 Nordeste 0 976.4 0.4 53
2019-05-28 05:00:00 19.1 9 Norte 22 Norte 0 976.4 -0.1 48
2019-05-28 04:00:00 19.8 12 Norte 28 Norte 0 976.2 0 46
2019-05-28 03:00:00 21 18 Norte 34 Norte 0 976 -0.1 42
2019-05-28 02:00:00 21.4 5 Este 33 Noroeste 0 976.5 0.9 40
2019-05-28 01:00:00 22.2 20 Noroeste 33 Noroeste 0 976.2 1.2 39
2019-05-28 00:00:00 22.2 12 Noroeste 19 Norte 0 976.1 1.3 40
2019-05-27 23:00:00 24.7 5 Norte 24 Norte 0 975.6 1 33
2019-05-27 22:00:00 26.6 12 Norte 26 Norte 0 975 0.3 30
2019-05-27 21:00:00 29.4 10 Norte 33 Noroeste 0 974.8 -0.1 24
2019-05-27 20:00:00 30.4 18 Noroeste 33 Noroeste 0 974.6 -0.5 22
2019-05-27 19:00:00 30.8 15 Noroeste 47 Noroeste 0 974.7 -0.9 19
2019-05-27 18:00:00 31.1 12 Noroeste 40 Noroeste 0 974.9 -1.3 20
2019-05-27 17:00:00 31.9 13 Noroeste 38 Noroeste 0 975.1 -1.6 21
2019-05-27 16:00:00 31.7 9 Noroeste 47 Noroeste 0 975.6 -1.7 21
2019-05-27 15:00:00 30.4 13 Noroeste 37 Noroeste 0 976.2 -1.6 23
2019-05-27 14:00:00 29.7 10 Noroeste 26 Noroeste 0 976.7 -1.4 27
2019-05-27 13:00:00 28.6 8 Noroeste 22 Noroeste 0 977.3 -1 30
2019-05-27 12:00:00 27 7 Noroeste 22 Noroeste 0 977.8 -0.4 32
2019-05-27 11:00:00 25.6 8 Norte 19 Norte 0 978.1 0 34
2019-05-27 10:00:00 24.3 2 Nordeste 10 Oeste 0 978.3 0.4 42
2019-05-27 09:00:00 21.7 4 Noroeste 12 Nordeste 0 978.2 0.4 49
2019-05-27 08:00:00 18.3 5 Norte 12 Nordeste 0 978.1 0.3 55
2019-05-27 07:00:00 16.8 6 Oeste 14 Norte 0 977.9 -0.3 54
2019-05-27 06:00:00 18.3 6 Norte 13 Noroeste 0 977.8 -0.7 48
2019-05-27 05:00:00 18.6 6 Este 11 Este 0 977.8 -1.2 48
2019-05-27 04:00:00 19.7 5 Este 11 Sudeste 0 978.2 -1.1 44
2019-05-27 03:00:00 21.2 5 Este 13 Norte 0 978.5 -0.8 39
2019-05-27 02:00:00 23.4 6 Norte 23 Norte 0 979 -0.2 33
2019-05-27 01:00:00 23.3 13 Norte 31 Noroeste 0 979.3 0.6 36
2019-05-27 00:00:00 22.7 7 Noroeste 15 Noroeste 0 979.3 0.7 34
2019-05-26 23:00:00 25.5 8 Norte 14 Norte 0 979.2 0.7 28
2019-05-26 22:00:00 27.1 5 Norte 24 Norte 0 978.7 0.1 25
2019-05-26 21:00:00 29.9 11 Norte 32 Norte 0 978.6 -0.3 19
2019-05-26 20:00:00 31.2 15 Norte 36 Noroeste 0 978.5 -0.8 18
2019-05-26 19:00:00 31.2 19 Norte 36 Norte 0 978.6 -1.3 19
2019-05-26 18:00:00 31.9 16 Norte 48 Noroeste 0 978.9 -1.6 18
2019-05-26 17:00:00 31.4 13 Norte 33 Noroeste 0 979.3 -2 22
2019-05-26 16:00:00 30.7 8 Norte 28 Norte 0 979.9 -2.2 21
2019-05-26 15:00:00 29.3 13 Noroeste 34 Norte 0 980.5 -2 23
2019-05-26 14:00:00 27.4 6 Oeste 27 Norte 0 981.3 -1.6 27
2019-05-26 13:00:00 25.8 9 Noroeste 24 Noroeste 0 982.1 -0.9 29
2019-05-26 12:00:00 25.5 9 Este 28 Nordeste 0 982.5 -0.6 29
2019-05-26 11:00:00 23.1 14 Nordeste 44 Norte 0 982.9 -0.1 32
2019-05-26 10:00:00 22.1 15 Nordeste 43 Nordeste 0 983 0.4 34
2019-05-26 09:00:00 20.3 13 Nordeste 39 Nordeste 0 983.1 0.8 36
2019-05-26 08:00:00 18.5 13 Nordeste 37 Nordeste 0 983 0.8 37
2019-05-26 07:00:00 18.2 15 Norte 41 Nordeste 0 982.6 0.4 32
2019-05-26 06:00:00 18.3 8 Nordeste 28 Norte 0 982.3 0 32
2019-05-26 05:00:00 19.3 15 Norte 32 Nordeste 0 982.2 0.1 33
2019-05-26 04:00:00 18.7 6 Norte 15 Nordeste 0 982.2 -0.1 36
2019-05-26 03:00:00 17.9 5 Sudoeste 27 Norte 0 982.3 0 38
2019-05-26 02:00:00 20.5 12 Norte 25 Norte 0 982.1 0.2 30
2019-05-26 01:00:00 20.3 12 Norte 25 Nordeste 0 982.3 0.9 32
2019-05-26 00:00:00 21.4 6 Nordeste 19 Nordeste 0 982.3 1.6 30
2019-05-25 23:00:00 22.2 8 Nordeste 20 Nordeste 0 981.9 1.5 28
2019-05-25 22:00:00 23.7 7 Nordeste 28 Nordeste 0 981.4 1.1 25
2019-05-25 21:00:00 25.9 13 Nordeste 32 Nordeste 0 980.7 0.3 21
2019-05-25 20:00:00 28 12 Nordeste 29 Nordeste 0 980.4 -0.1 19
2019-05-25 19:00:00 28.9 8 Norte 33 Norte 0 980.3 -0.8 20
2019-05-25 18:00:00 28.9 6 Este 22 Noroeste 0 980.4 -1.3 21
2019-05-25 17:00:00 28.3 8 Noroeste 36 Este 0 980.5 -1.7 22
2019-05-25 16:00:00 27.6 11 Nordeste 41 Nordeste 0 981.1 -1.5 21
2019-05-25 15:00:00 26 16 Nordeste 40 Nordeste 0 981.7 -1.3 22
2019-05-25 14:00:00 24.6 18 Nordeste 43 Nordeste 0 982.2 -0.9 26
2019-05-25 13:00:00 22.6 22 Nordeste 48 Norte 0 982.6 -0.5 31
2019-05-25 12:00:00 22.1 17 Nordeste 40 Nordeste 0 983 0.2 33
2019-05-25 11:00:00 21 17 Nordeste 46 Nordeste 0 983.1 0.8 36
2019-05-25 10:00:00 19.9 13 Este 42 Nordeste 0 983.1 1.4 39
2019-05-25 09:00:00 17.9 9 Nordeste 35 Nordeste 0 982.8 1.5 45
2019-05-25 08:00:00 15.5 19 Nordeste 43 Norte 0 982.3 1.3 53
2019-05-25 07:00:00 14.9 22 Norte 38 Norte 0 981.7 0.7 55
2019-05-25 06:00:00 15.6 15 Nordeste 39 Norte 0 981.3 0.8 52
2019-05-25 05:00:00 16.1 17 Nordeste 45 Nordeste 0 981 0.5 49
2019-05-25 04:00:00 17.7 19 Norte 45 Nordeste 0 981 0.9 39
2019-05-25 03:00:00 18.8 16 Nordeste 40 Nordeste 0 980.5 0.9 36
2019-05-25 02:00:00 19.4 19 Norte 46 Norte 0 980.5 1.6 35
2019-05-25 01:00:00 20.3 15 Nordeste 33 Nordeste 0 980.1 2.1 32
2019-05-25 00:00:00 21.7 10 Nordeste 22 Nordeste 0 979.6 2.1 28